Le Roy, IL (61752)

12:19 PM CDT on August 24, 2016 (GMT -0500)
LeRoy Fertilizer | | Change Station

Elev 784 ft 40.35 °N, 88.77 °W | Updated 1 minute ago

Mostly Cloudy
Mostly Cloudy
81.0 °F
Feels Like 87 °F
N
2.0
Wind Variable Wind from SW
Gusts 14.0 mph

Today
High -- | Low -- °F
--% Chance of Precip.
Yesterday
High -- | Low -- °F
Precip. -- in
Pressure 30.04 in
Visibility 10.0 miles
Clouds Scattered Clouds 2000 ft
Mostly Cloudy 2600 ft
Mostly Cloudy 4700 ft
Heat Index 87 °F
Dew Point 76 °F
Humidity 85%
Rainfall 0.85 in
Snow Depth Not available.
6:15 AM 7:38 PM
Waning Gibbous, 55% visible
METAR KBMI 241656Z 24015G21KT 10SM SCT020 BKN026 BKN047 27/23 A3001 RMK AO2 SLP171 T02670228
Pressure 30.04 in
Visibility 10.0 miles
Clouds Scattered Clouds 2000 ft
Mostly Cloudy 2600 ft
Mostly Cloudy 4700 ft
Heat Index 87 °F
Dew Point 76 °F
Humidity 85%
Rainfall 0.85 in
Snow Depth Not available.
6:15 AM 7:38 PM
Waning Gibbous, 55% visible
METAR KBMI 241656Z 24015G21KT 10SM SCT020 BKN026 BKN047 27/23 A3001 RMK AO2 SLP171 T02670228

10-Day Weather Forecast

Almanac

Astronomy

Aug. 24, 2016 Rise Set
Actual Time
Civil Twilight
Nautical Twilight
Astronomical Twilight
Moon
Length of Visible Light
Length of Day
Tomorrow will be .
, % of the Moon is Illuminated

Today's Extremes

State Highs State Lows

Community

WunderPhotos

Upload Photos

1,934,653 photos uploaded!

WunderBlog® & News

Nearby

Air Quality

  Air Quality AQ Index Pollutant
Not available.

Snow Depth

Station Depth Elevation

Earthquake Activity

City Distance Mag. Time & Date
Minimum magnitude displayed is 2.5.

Coastal Water Temperatures

Place Temperature

Stations

Nearby Weather Stations

Station Location Temp. Windchill Dew Point Humidity Wind Precip. Elev Updated Type
                   

Watches & Warnings

There are currently no watches in effect.